createdAt,value
2018-09-04T00:00:37.083Z,19.40
2018-09-04T00:03:05.526Z,19.40
2018-09-04T00:05:33.955Z,19.40
2018-09-04T00:08:02.351Z,19.40
2018-09-04T00:10:30.818Z,19.30
2018-09-04T00:12:59.246Z,19.30
2018-09-04T00:15:27.699Z,19.30
2018-09-04T00:17:56.174Z,19.20
2018-09-04T00:20:24.616Z,19.20
2018-09-04T00:22:53.088Z,19.20
2018-09-04T00:25:21.567Z,19.10
2018-09-04T00:27:50.089Z,19.10
2018-09-04T00:30:18.522Z,19.10
2018-09-04T00:32:46.970Z,19.00
2018-09-04T00:35:18.433Z,18.90
2018-09-04T00:37:46.942Z,18.90
2018-09-04T00:40:15.480Z,18.90
2018-09-04T00:42:44.322Z,18.80
2018-09-04T00:45:12.761Z,18.80
2018-09-04T00:47:41.232Z,18.80
2018-09-04T00:50:09.687Z,18.70
2018-09-04T00:52:38.141Z,18.70
2018-09-04T00:55:06.684Z,18.60
2018-09-04T00:57:35.209Z,18.60
2018-09-04T01:00:03.868Z,18.60
2018-09-04T01:02:32.360Z,18.50
2018-09-04T01:05:00.816Z,18.50
2018-09-04T01:07:29.234Z,18.40
2018-09-04T01:09:57.683Z,18.50
2018-09-04T01:12:26.132Z,18.50
2018-09-04T01:14:55.306Z,18.50
2018-09-04T01:17:23.735Z,18.50
2018-09-04T01:19:52.158Z,18.50
2018-09-04T01:22:20.921Z,18.50
2018-09-04T01:24:49.347Z,18.50
2018-09-04T01:27:17.870Z,18.50
2018-09-04T01:29:46.304Z,18.40
2018-09-04T01:32:14.735Z,18.40
2018-09-04T01:34:43.212Z,18.30
2018-09-04T01:37:11.694Z,18.20
2018-09-04T01:39:40.181Z,18.20
2018-09-04T01:42:08.632Z,18.20
2018-09-04T01:44:37.093Z,18.10
2018-09-04T01:47:05.700Z,18.10
2018-09-04T01:49:34.157Z,18.00
2018-09-04T01:52:02.601Z,18.00
2018-09-04T01:54:30.989Z,18.00
2018-09-04T01:56:59.492Z,18.00
2018-09-04T01:59:27.891Z,18.00
2018-09-04T02:01:56.335Z,17.90
2018-09-04T02:04:24.765Z,17.90
2018-09-04T02:06:53.192Z,17.90
2018-09-04T02:09:22.483Z,17.80
2018-09-04T02:11:50.856Z,17.90
2018-09-04T02:14:19.318Z,17.80
2018-09-04T02:16:47.704Z,17.80
2018-09-04T02:19:16.149Z,17.80
2018-09-04T02:21:44.529Z,17.70
2018-09-04T02:24:12.947Z,17.70
2018-09-04T02:26:41.288Z,17.60
2018-09-04T02:29:09.892Z,17.50
2018-09-04T02:31:38.280Z,17.50
2018-09-04T02:34:06.706Z,17.50
2018-09-04T02:36:35.113Z,17.50
2018-09-04T02:39:03.590Z,17.60
2018-09-04T02:41:31.995Z,17.60
2018-09-04T02:44:00.460Z,17.50
2018-09-04T02:46:28.842Z,17.50
2018-09-04T02:48:57.242Z,17.50
2018-09-04T02:51:25.823Z,17.50
2018-09-04T02:53:54.282Z,17.50
2018-09-04T02:56:22.710Z,17.40
2018-09-04T02:58:51.129Z,17.30
2018-09-04T03:01:19.504Z,17.20
2018-09-04T03:03:47.954Z,17.10
2018-09-04T03:06:16.333Z,17.10
2018-09-04T03:08:44.760Z,17.00
2018-09-04T03:11:14.092Z,17.00
2018-09-04T03:13:42.522Z,17.00
2018-09-04T03:16:11.005Z,16.90
2018-09-04T03:18:39.533Z,16.90
2018-09-04T03:21:07.886Z,16.90
2018-09-04T03:23:36.297Z,16.90
2018-09-04T03:26:04.736Z,16.90
2018-09-04T03:28:33.131Z,16.90
2018-09-04T03:31:01.538Z,16.90
2018-09-04T03:33:29.951Z,16.90
2018-09-04T03:35:58.375Z,16.90
2018-09-04T03:38:26.903Z,16.80
2018-09-04T03:40:55.466Z,16.80
2018-09-04T03:43:23.967Z,16.80
2018-09-04T03:45:52.398Z,16.80
2018-09-04T03:48:20.838Z,16.80
2018-09-04T03:50:49.363Z,16.80
2018-09-04T03:53:17.821Z,16.80
2018-09-04T03:55:46.340Z,16.80
2018-09-04T03:58:14.766Z,16.80
2018-09-04T04:00:43.151Z,16.80
2018-09-04T04:03:11.672Z,16.80
2018-09-04T04:05:40.115Z,16.80
2018-09-04T04:08:08.599Z,16.80
2018-09-04T04:10:37.063Z,16.70
2018-09-04T04:13:05.561Z,16.70
2018-09-04T04:15:34.218Z,16.60
2018-09-04T04:18:02.710Z,16.60
2018-09-04T04:20:31.192Z,16.60
2018-09-04T04:22:59.589Z,16.50
2018-09-04T04:25:28.142Z,16.60
2018-09-04T04:27:56.659Z,16.60
2018-09-04T04:30:25.118Z,16.70
2018-09-04T04:32:53.637Z,16.80
2018-09-04T04:35:22.107Z,16.80
2018-09-04T04:37:50.564Z,16.90
2018-09-04T04:40:19.045Z,16.90
2018-09-04T04:42:47.493Z,16.90
2018-09-04T04:45:15.930Z,17.00
2018-09-04T04:47:49.001Z,16.80
2018-09-04T04:50:18.087Z,16.80
2018-09-04T04:52:46.620Z,16.80
2018-09-04T04:55:15.046Z,16.80
2018-09-04T04:57:43.541Z,16.70
2018-09-04T05:00:12.101Z,16.70
2018-09-04T05:02:40.519Z,16.70
2018-09-04T05:05:09.192Z,16.70
2018-09-04T05:07:37.744Z,16.70
2018-09-04T05:10:06.544Z,16.70
2018-09-04T05:12:34.993Z,16.70
2018-09-04T05:15:03.393Z,16.80
2018-09-04T05:17:31.772Z,16.80
2018-09-04T05:20:00.298Z,16.80
2018-09-04T05:22:28.796Z,16.90
2018-09-04T05:24:57.291Z,16.90
2018-09-04T05:27:25.697Z,16.90
2018-09-04T05:29:54.426Z,16.90
2018-09-04T05:32:29.257Z,17.00
2018-09-04T05:34:57.768Z,16.90
2018-09-04T05:37:26.217Z,16.90
2018-09-04T05:39:54.836Z,16.90
2018-09-04T05:42:27.497Z,17.00
2018-09-04T05:44:56.001Z,17.00
2018-09-04T05:47:26.938Z,17.10
2018-09-04T05:49:55.535Z,17.10
2018-09-04T05:52:23.940Z,17.20
2018-09-04T05:54:52.339Z,17.10
2018-09-04T05:57:20.805Z,17.20
2018-09-04T05:59:49.271Z,17.30
2018-09-04T06:02:17.753Z,17.30
2018-09-04T06:04:46.310Z,17.30
2018-09-04T06:07:14.778Z,17.30
2018-09-04T06:09:43.289Z,17.30
2018-09-04T06:12:11.693Z,17.30
2018-09-04T06:14:40.142Z,17.30
2018-09-04T06:17:08.600Z,17.50
2018-09-04T06:19:37.087Z,17.60
2018-09-04T06:22:05.751Z,17.70
2018-09-04T06:24:34.331Z,17.70
2018-09-04T06:27:02.773Z,17.80
2018-09-04T06:29:31.259Z,17.80
2018-09-04T06:31:59.667Z,17.80
2018-09-04T06:34:28.080Z,17.90
2018-09-04T06:36:56.861Z,17.90
2018-09-04T06:39:25.252Z,17.90
2018-09-04T06:41:53.682Z,18.00
2018-09-04T06:44:22.067Z,18.10
2018-09-04T06:46:50.551Z,18.10
2018-09-04T06:49:19.091Z,18.20
2018-09-04T06:51:47.506Z,18.30
2018-09-04T06:54:15.927Z,18.40
2018-09-04T06:56:44.390Z,18.40
2018-09-04T06:59:12.806Z,18.50
2018-09-04T07:01:41.238Z,18.50
2018-09-04T07:04:09.802Z,18.70
2018-09-04T07:06:38.270Z,18.90
2018-09-04T07:09:08.701Z,19.00
2018-09-04T07:11:37.215Z,19.20
2018-09-04T07:14:05.604Z,19.40
2018-09-04T07:16:34.030Z,19.50
2018-09-04T07:19:02.473Z,19.60
2018-09-04T07:21:31.127Z,19.70
2018-09-04T07:23:59.559Z,19.80
2018-09-04T07:26:28.091Z,20.00
2018-09-04T07:28:56.525Z,20.20
2018-09-04T07:31:25.913Z,20.30
2018-09-04T07:33:56.288Z,20.50
2018-09-04T07:36:24.832Z,20.70
2018-09-04T07:38:54.621Z,20.80
2018-09-04T07:41:23.091Z,21.00
2018-09-04T07:43:51.486Z,21.10
2018-09-04T07:46:19.938Z,21.30
2018-09-04T07:48:48.298Z,21.50
2018-09-04T07:51:16.720Z,21.80
2018-09-04T07:53:45.205Z,22.00
2018-09-04T07:56:13.936Z,22.10
2018-09-04T07:58:42.332Z,22.30
2018-09-04T08:01:10.712Z,22.50
2018-09-04T08:03:39.077Z,22.70
2018-09-04T08:06:07.466Z,22.80
2018-09-04T08:08:36.157Z,22.90
2018-09-04T08:11:04.922Z,23.10
2018-09-04T08:13:33.311Z,23.10
2018-09-04T08:16:01.705Z,23.30
2018-09-04T08:18:30.094Z,23.50
2018-09-04T08:20:58.870Z,23.60
2018-09-04T08:23:27.280Z,23.70
2018-09-04T08:25:55.755Z,24.00
2018-09-04T08:28:24.153Z,24.10
2018-09-04T08:30:52.668Z,24.20
2018-09-04T08:33:21.829Z,24.40
2018-09-04T08:35:50.322Z,24.60
2018-09-04T08:38:18.916Z,24.80
2018-09-04T08:40:47.326Z,25.00
2018-09-04T08:43:16.950Z,25.30
2018-09-04T08:45:45.650Z,25.30
2018-09-04T08:48:18.761Z,25.30
2018-09-04T08:50:47.193Z,25.30
2018-09-04T08:53:16.382Z,25.50
2018-09-04T08:55:44.848Z,25.60
2018-09-04T08:58:13.318Z,25.80
2018-09-04T09:00:41.705Z,26.00
2018-09-04T09:03:10.380Z,26.10
2018-09-04T09:05:39.080Z,26.30
2018-09-04T09:08:07.504Z,26.40
2018-09-04T09:10:36.037Z,26.70
2018-09-04T09:13:04.523Z,26.80
2018-09-04T09:15:32.915Z,26.90
2018-09-04T09:18:01.378Z,26.90
2018-09-04T09:20:29.771Z,27.00
2018-09-04T09:22:58.320Z,27.30
2018-09-04T09:25:27.087Z,27.50
2018-09-04T09:27:55.587Z,27.70
2018-09-04T09:30:24.104Z,27.80
2018-09-04T09:32:52.532Z,27.90
2018-09-04T09:35:21.097Z,28.20
2018-09-04T09:37:49.519Z,28.40
2018-09-04T09:40:17.969Z,28.40
2018-09-04T09:42:46.553Z,28.40
2018-09-04T09:45:15.055Z,28.40
2018-09-04T09:47:48.507Z,28.50
2018-09-04T09:50:17.572Z,28.80
2018-09-04T09:52:47.095Z,28.70
2018-09-04T09:55:15.440Z,28.90
2018-09-04T09:57:43.877Z,28.90
2018-09-04T10:00:18.402Z,29.10
2018-09-04T10:02:55.523Z,29.20
2018-09-04T10:05:23.983Z,29.50
2018-09-04T10:07:52.599Z,29.80
2018-09-04T10:10:21.106Z,30.10
2018-09-04T10:12:49.458Z,30.00
2018-09-04T10:15:17.840Z,29.90
2018-09-04T10:17:46.964Z,29.80
2018-09-04T10:20:15.393Z,30.30
2018-09-04T10:22:43.832Z,30.70
2018-09-04T10:25:12.206Z,30.90
2018-09-04T10:27:40.737Z,31.00
2018-09-04T10:30:13.456Z,31.00
2018-09-04T10:32:51.028Z,31.10
2018-09-04T10:35:20.023Z,31.10
2018-09-04T10:37:48.525Z,30.80
2018-09-04T10:40:22.323Z,30.60
2018-09-04T10:42:51.239Z,30.90
2018-09-04T10:45:25.058Z,31.30
2018-09-04T10:47:53.725Z,30.90
2018-09-04T10:50:22.377Z,30.80
2018-09-04T10:52:51.019Z,31.20
2018-09-04T10:55:19.477Z,31.40
2018-09-04T10:57:47.989Z,31.10
2018-09-04T11:00:17.197Z,30.60
2018-09-04T11:02:45.659Z,30.50
2018-09-04T11:05:14.040Z,30.80
2018-09-04T11:07:42.394Z,30.70
2018-09-04T11:10:10.826Z,30.40
2018-09-04T11:12:39.160Z,30.20
2018-09-04T11:15:07.527Z,29.80
2018-09-04T11:17:36.018Z,29.50
2018-09-04T11:20:04.525Z,29.70
2018-09-04T11:22:32.885Z,30.10
2018-09-04T11:25:01.278Z,30.70
2018-09-04T11:27:29.614Z,30.80
2018-09-04T11:29:58.076Z,31.00
2018-09-04T11:32:26.541Z,31.50
2018-09-04T11:34:55.122Z,31.90
2018-09-04T11:37:23.531Z,32.30
2018-09-04T11:39:52.960Z,32.50
2018-09-04T11:42:21.358Z,32.60
2018-09-04T11:44:49.791Z,31.90
2018-09-04T11:47:18.158Z,32.10
2018-09-04T11:49:46.583Z,32.30
2018-09-04T11:52:21.507Z,32.80
2018-09-04T11:54:49.916Z,33.20
2018-09-04T11:57:18.314Z,33.40
2018-09-04T11:59:46.795Z,33.40
2018-09-04T12:02:26.091Z,33.30
2018-09-04T12:04:54.517Z,32.70
2018-09-04T12:07:23.015Z,32.10
2018-09-04T12:09:51.492Z,31.40
2018-09-04T12:12:25.381Z,30.90
2018-09-04T12:14:53.724Z,30.90
2018-09-04T12:17:23.188Z,30.50
2018-09-04T12:20:00.760Z,30.20
2018-09-04T12:22:29.204Z,30.40
2018-09-04T12:24:57.657Z,31.00
2018-09-04T12:27:26.007Z,31.50
2018-09-04T12:29:54.468Z,32.00
2018-09-04T12:32:22.927Z,32.50
2018-09-04T12:34:51.305Z,32.60
2018-09-04T12:37:19.821Z,32.90
2018-09-04T12:39:53.586Z,33.00
2018-09-04T12:42:22.125Z,32.70
2018-09-04T12:44:50.879Z,32.30
2018-09-04T12:47:19.393Z,32.00
2018-09-04T12:49:47.786Z,31.60
2018-09-04T12:52:16.183Z,31.50
2018-09-04T12:54:44.623Z,31.90
2018-09-04T12:57:13.083Z,31.90
2018-09-04T12:59:41.563Z,32.50
2018-09-04T13:02:09.988Z,32.80
2018-09-04T13:04:38.474Z,33.20
2018-09-04T13:07:06.857Z,32.70
2018-09-04T13:09:35.248Z,32.30
2018-09-04T13:12:03.663Z,31.90
2018-09-04T13:14:32.176Z,31.50
2018-09-04T13:17:04.971Z,31.00
2018-09-04T13:19:34.526Z,30.60
2018-09-04T13:22:02.930Z,30.30
2018-09-04T13:24:31.651Z,30.20
2018-09-04T13:27:00.118Z,30.60
2018-09-04T13:29:28.957Z,31.10
2018-09-04T13:31:57.586Z,31.40
2018-09-04T13:34:26.028Z,31.80
2018-09-04T13:36:54.448Z,32.10
2018-09-04T13:39:23.453Z,32.30
2018-09-04T13:41:51.832Z,32.60
2018-09-04T13:44:20.212Z,33.00
2018-09-04T13:46:48.685Z,32.80
2018-09-04T13:49:17.078Z,32.70
2018-09-04T13:51:45.459Z,32.20
2018-09-04T13:54:13.862Z,31.70
2018-09-04T13:56:42.257Z,31.10
2018-09-04T13:59:10.728Z,30.70
2018-09-04T14:01:39.213Z,30.40
2018-09-04T14:04:07.559Z,30.30
2018-09-04T14:06:36.024Z,30.10
2018-09-04T14:09:05.345Z,30.30
2018-09-04T14:11:33.720Z,30.60
2018-09-04T14:14:02.158Z,30.80
2018-09-04T14:16:43.147Z,30.90
2018-09-04T14:18:59.050Z,31.10
2018-09-04T14:21:27.564Z,31.20
2018-09-04T14:23:56.076Z,31.50
2018-09-04T14:26:24.826Z,31.70
2018-09-04T14:29:07.051Z,31.60
2018-09-04T14:31:22.396Z,31.30
2018-09-04T14:33:50.885Z,30.80
2018-09-04T14:36:19.416Z,30.60
2018-09-04T14:38:47.744Z,30.30
2018-09-04T14:41:16.280Z,30.30
2018-09-04T14:43:44.656Z,30.00
2018-09-04T14:46:13.092Z,29.60
2018-09-04T14:48:41.630Z,29.60
2018-09-04T14:51:10.049Z,29.70
2018-09-04T14:53:38.479Z,29.60
2018-09-04T14:56:06.891Z,29.50
2018-09-04T14:58:35.302Z,29.90
2018-09-04T15:01:03.681Z,30.00
2018-09-04T15:03:33.050Z,30.10
2018-09-04T15:06:01.560Z,30.10
2018-09-04T15:08:29.961Z,30.30
2018-09-04T15:10:58.390Z,30.20
2018-09-04T15:13:26.822Z,30.10
2018-09-04T15:15:55.274Z,30.10
2018-09-04T15:18:23.687Z,30.00
2018-09-04T15:20:52.137Z,29.70
2018-09-04T15:23:20.692Z,29.60
2018-09-04T15:25:49.181Z,29.30
2018-09-04T15:28:17.611Z,29.30
2018-09-04T15:30:46.098Z,29.30
2018-09-04T15:33:14.493Z,29.30
2018-09-04T15:35:42.907Z,29.30
2018-09-04T15:38:11.491Z,29.20
2018-09-04T15:40:39.871Z,29.20
2018-09-04T15:43:08.295Z,29.10
2018-09-04T15:45:36.706Z,29.10
2018-09-04T15:48:05.501Z,29.20
2018-09-04T15:50:34.611Z,29.30
2018-09-04T15:53:03.815Z,29.20
2018-09-04T15:55:33.277Z,29.10
2018-09-04T15:58:10.424Z,29.00
2018-09-04T16:00:39.655Z,29.00
2018-09-04T16:03:08.680Z,29.00
2018-09-04T16:05:38.037Z,28.90
2018-09-04T16:08:06.619Z,28.80
2018-09-04T16:10:35.573Z,28.70
2018-09-04T16:13:04.103Z,28.70
2018-09-04T16:15:32.479Z,28.60
2018-09-04T16:18:00.850Z,28.50
2018-09-04T16:20:29.295Z,28.40
2018-09-04T16:22:57.811Z,28.10
2018-09-04T16:25:26.133Z,28.00
2018-09-04T16:27:54.617Z,27.90
2018-09-04T16:30:23.057Z,27.60
2018-09-04T16:32:51.472Z,27.60
2018-09-04T16:35:19.852Z,27.50
2018-09-04T16:37:48.384Z,27.40
2018-09-04T16:40:16.757Z,27.30
2018-09-04T16:42:45.144Z,27.20
2018-09-04T16:45:13.485Z,27.00
2018-09-04T16:47:42.029Z,26.90
2018-09-04T16:50:10.383Z,26.70
2018-09-04T16:52:38.748Z,26.50
2018-09-04T16:55:07.121Z,26.30
2018-09-04T16:57:35.482Z,26.20
2018-09-04T17:00:03.843Z,26.20
2018-09-04T17:02:33.025Z,26.20
2018-09-04T17:05:01.546Z,26.10
2018-09-04T17:07:29.941Z,26.10
2018-09-04T17:09:58.365Z,26.10
2018-09-04T17:12:26.815Z,26.00
2018-09-04T17:14:55.245Z,26.00
2018-09-04T17:17:23.705Z,25.90
2018-09-04T17:19:52.203Z,25.80
2018-09-04T17:22:20.675Z,25.60
2018-09-04T17:24:49.116Z,25.50
2018-09-04T17:27:17.505Z,25.40
2018-09-04T17:29:45.854Z,25.30
2018-09-04T17:32:14.396Z,25.10
2018-09-04T17:34:42.930Z,25.00
2018-09-04T17:37:11.347Z,24.90
2018-09-04T17:39:39.755Z,24.80
2018-09-04T17:42:08.158Z,24.70
2018-09-04T17:44:36.668Z,24.60
2018-09-04T17:47:05.410Z,24.50
2018-09-04T17:49:33.921Z,24.30
2018-09-04T17:52:02.356Z,24.20
2018-09-04T17:54:30.749Z,24.20
2018-09-04T17:56:59.838Z,24.10
2018-09-04T17:59:28.351Z,24.10
2018-09-04T18:01:56.813Z,24.00
2018-09-04T18:04:25.291Z,23.90
2018-09-04T18:06:53.761Z,23.70
2018-09-04T18:09:22.520Z,23.60
2018-09-04T18:11:50.897Z,23.40
2018-09-04T18:14:19.439Z,23.30
2018-09-04T18:16:47.867Z,23.20
2018-09-04T18:19:16.425Z,23.10
2018-09-04T18:21:45.150Z,23.00
2018-09-04T18:24:14.103Z,22.90
2018-09-04T18:26:42.515Z,22.90
2018-09-04T18:29:11.392Z,22.90
2018-09-04T18:31:41.063Z,22.90
2018-09-04T18:34:09.630Z,22.80
2018-09-04T18:36:38.033Z,22.70
2018-09-04T18:39:06.994Z,22.60
2018-09-04T18:41:35.778Z,22.50
2018-09-04T18:44:04.263Z,22.40
2018-09-04T18:46:32.796Z,22.40
2018-09-04T18:49:02.607Z,22.30
2018-09-04T18:51:31.067Z,22.30
2018-09-04T18:53:59.556Z,22.20
2018-09-04T18:56:28.612Z,22.10
2018-09-04T18:58:57.700Z,22.10
2018-09-04T19:01:26.269Z,22.00
2018-09-04T19:03:54.865Z,21.90
2018-09-04T19:07:09.172Z,21.80
2018-09-04T19:09:37.864Z,21.70
2018-09-04T19:12:07.061Z,21.70
2018-09-04T19:14:35.746Z,21.60
2018-09-04T19:17:04.295Z,21.50
2018-09-04T19:19:32.810Z,21.50
2018-09-04T19:22:01.777Z,21.40
2018-09-04T19:24:30.286Z,21.30
2018-09-04T19:26:58.647Z,21.30
2018-09-04T19:29:27.040Z,21.20
2018-09-04T19:31:55.487Z,21.20
2018-09-04T19:34:23.885Z,21.20
2018-09-04T19:36:52.220Z,21.10
2018-09-04T19:39:20.584Z,21.10
2018-09-04T19:41:48.936Z,21.00
2018-09-04T19:44:17.316Z,20.90
2018-09-04T19:46:45.652Z,20.90
2018-09-04T19:49:14.121Z,20.80
2018-09-04T19:51:42.501Z,20.70
2018-09-04T19:54:10.945Z,20.70
2018-09-04T19:56:39.439Z,20.70
2018-09-04T19:59:07.811Z,20.60
2018-09-04T20:01:36.340Z,20.50
2018-09-04T20:04:04.718Z,20.50
2018-09-04T20:06:33.059Z,20.40
2018-09-04T20:09:01.434Z,20.40
2018-09-04T20:11:29.880Z,20.40
2018-09-04T20:13:58.233Z,20.40
2018-09-04T20:16:26.690Z,20.40
2018-09-04T20:18:55.030Z,20.30
2018-09-04T20:21:23.321Z,20.20
2018-09-04T20:23:51.637Z,20.20
2018-09-04T20:26:19.922Z,20.10
2018-09-04T20:28:48.234Z,20.00
2018-09-04T20:31:17.218Z,20.10
2018-09-04T20:33:45.743Z,20.00
2018-09-04T20:36:14.053Z,20.00
2018-09-04T20:38:48.365Z,19.90
2018-09-04T20:41:18.479Z,19.80
2018-09-04T20:43:47.039Z,19.80
2018-09-04T20:46:15.817Z,19.70
2018-09-04T20:48:44.231Z,19.70
2018-09-04T20:51:12.529Z,19.60
2018-09-04T20:53:40.888Z,19.70
2018-09-04T20:56:09.188Z,19.60
2018-09-04T20:58:48.776Z,19.60
2018-09-04T21:01:28.389Z,19.60
2018-09-04T21:04:07.942Z,19.50
2018-09-04T21:06:48.632Z,19.40
2018-09-04T21:09:28.037Z,19.30
2018-09-04T21:11:56.471Z,19.30
2018-09-04T21:14:25.134Z,19.20
2018-09-04T21:16:53.506Z,19.10
2018-09-04T21:19:21.824Z,19.10
2018-09-04T21:21:50.148Z,19.10
2018-09-04T21:24:18.629Z,19.00
2018-09-04T21:26:46.992Z,19.00
2018-09-04T21:29:15.313Z,19.00
2018-09-04T21:31:43.691Z,19.00
2018-09-04T21:34:12.008Z,18.90
2018-09-04T21:36:40.355Z,18.90
2018-09-04T21:39:09.662Z,18.80
2018-09-04T21:41:38.048Z,18.80
2018-09-04T21:44:06.626Z,18.80
2018-09-04T21:46:35.141Z,18.80
2018-09-04T21:49:03.523Z,18.80
2018-09-04T21:51:31.923Z,18.80
2018-09-04T21:54:00.280Z,18.80
2018-09-04T21:56:28.630Z,18.80
2018-09-04T21:58:56.978Z,18.80
2018-09-04T22:01:25.362Z,18.80
2018-09-04T22:03:53.707Z,18.70
2018-09-04T22:06:22.093Z,18.70
2018-09-04T22:08:50.486Z,18.70
2018-09-04T22:11:18.842Z,18.70
2018-09-04T22:14:24.573Z,18.50
2018-09-04T22:16:52.914Z,18.50
2018-09-04T22:19:21.287Z,18.40
2018-09-04T22:21:49.728Z,18.30
2018-09-04T22:24:18.089Z,18.30
2018-09-04T22:26:46.568Z,18.20
2018-09-04T22:29:14.865Z,18.20
2018-09-04T22:31:43.217Z,18.10
2018-09-04T22:34:11.684Z,18.10
2018-09-04T22:36:40.091Z,18.00
2018-09-04T22:39:09.037Z,18.00
2018-09-04T22:41:37.635Z,17.90
2018-09-04T22:44:06.396Z,17.80
2018-09-04T22:46:34.757Z,17.70
2018-09-04T22:49:03.073Z,17.60
2018-09-04T22:51:36.186Z,17.60
2018-09-04T22:54:05.501Z,17.50
2018-09-04T22:56:33.849Z,17.50
2018-09-04T22:59:02.335Z,17.50
2018-09-04T23:01:30.657Z,17.50
2018-09-04T23:03:59.040Z,17.50
2018-09-04T23:06:27.557Z,17.50
2018-09-04T23:08:55.970Z,17.50
2018-09-04T23:11:24.316Z,17.50
2018-09-04T23:13:52.684Z,17.50
2018-09-04T23:16:21.006Z,17.40
2018-09-04T23:18:49.340Z,17.40
2018-09-04T23:21:17.716Z,17.40
2018-09-04T23:23:46.152Z,17.40
2018-09-04T23:26:14.449Z,17.40
2018-09-04T23:28:43.463Z,17.40
2018-09-04T23:31:11.826Z,17.30
2018-09-04T23:33:40.222Z,17.30
2018-09-04T23:36:08.578Z,17.20
2018-09-04T23:38:36.933Z,17.20
2018-09-04T23:41:05.288Z,17.20
2018-09-04T23:43:33.831Z,17.20
2018-09-04T23:46:02.266Z,17.20
2018-09-04T23:48:30.593Z,17.10
2018-09-04T23:51:00.397Z,17.20
2018-09-04T23:53:28.865Z,17.10
2018-09-04T23:55:57.261Z,17.20
2018-09-04T23:58:25.616Z,17.10
